sensor_id;sensor_type;location;lat;lon;timestamp;temperature;humidity
25640;DHT22;13497;48.322;16.204;2023-03-05T00:01:12;2.80;99.90
25640;DHT22;13497;48.322;16.204;2023-03-05T00:03:38;2.80;99.90
25640;DHT22;13497;48.322;16.204;2023-03-05T00:06:05;2.70;99.90
25640;DHT22;13497;48.322;16.204;2023-03-05T00:08:31;2.70;99.90
25640;DHT22;13497;48.322;16.204;2023-03-05T00:10:59;2.80;99.90
25640;DHT22;13497;48.322;16.204;2023-03-05T00:13:24;2.80;99.90
25640;DHT22;13497;48.322;16.204;2023-03-05T00:15:50;2.80;99.90
25640;DHT22;13497;48.322;16.204;2023-03-05T00:18:16;2.80;99.90
25640;DHT22;13497;48.322;16.204;2023-03-05T00:20:41;2.80;99.90
25640;DHT22;13497;48.322;16.204;2023-03-05T00:23:08;2.80;99.90
25640;DHT22;13497;48.322;16.204;2023-03-05T00:25:35;2.80;99.90
25640;DHT22;13497;48.322;16.204;2023-03-05T00:28:02;2.80;99.90
25640;DHT22;13497;48.322;16.204;2023-03-05T00:30:27;2.80;99.90
25640;DHT22;13497;48.322;16.204;2023-03-05T00:32:53;2.80;99.90
25640;DHT22;13497;48.322;16.204;2023-03-05T00:35:19;2.80;99.90
25640;DHT22;13497;48.322;16.204;2023-03-05T00:37:44;2.70;99.90
25640;DHT22;13497;48.322;16.204;2023-03-05T00:40:10;2.80;99.90
25640;DHT22;13497;48.322;16.204;2023-03-05T00:42:37;2.80;99.90
25640;DHT22;13497;48.322;16.204;2023-03-05T00:45:07;2.80;99.90
25640;DHT22;13497;48.322;16.204;2023-03-05T00:47:33;2.80;99.90
25640;DHT22;13497;48.322;16.204;2023-03-05T00:50:00;2.90;99.90
25640;DHT22;13497;48.322;16.204;2023-03-05T00:52:26;2.90;99.90
25640;DHT22;13497;48.322;16.204;2023-03-05T00:54:52;2.90;99.90
25640;DHT22;13497;48.322;16.204;2023-03-05T00:57:17;2.80;99.90
25640;DHT22;13497;48.322;16.204;2023-03-05T00:59:43;2.80;99.90
25640;DHT22;13497;48.322;16.204;2023-03-05T01:02:09;2.90;99.90
25640;DHT22;13497;48.322;16.204;2023-03-05T01:04:34;2.90;99.90
25640;DHT22;13497;48.322;16.204;2023-03-05T01:07:00;2.90;99.90
25640;DHT22;13497;48.322;16.204;2023-03-05T01:09:26;2.80;99.90
25640;DHT22;13497;48.322;16.204;2023-03-05T01:11:51;2.90;99.90
25640;DHT22;13497;48.322;16.204;2023-03-05T01:14:18;2.80;99.90
25640;DHT22;13497;48.322;16.204;2023-03-05T01:16:44;2.90;99.90
25640;DHT22;13497;48.322;16.204;2023-03-05T01:19:10;2.80;99.90
25640;DHT22;13497;48.322;16.204;2023-03-05T01:21:36;2.90;99.90
25640;DHT22;13497;48.322;16.204;2023-03-05T01:24:03;2.90;99.90
25640;DHT22;13497;48.322;16.204;2023-03-05T01:26:29;2.80;99.90
25640;DHT22;13497;48.322;16.204;2023-03-05T01:28:54;2.90;99.90
25640;DHT22;13497;48.322;16.204;2023-03-05T01:31:20;2.90;99.90
25640;DHT22;13497;48.322;16.204;2023-03-05T01:33:46;2.90;99.90
25640;DHT22;13497;48.322;16.204;2023-03-05T01:36:13;2.90;99.90
25640;DHT22;13497;48.322;16.204;2023-03-05T01:38:42;2.90;99.90
25640;DHT22;13497;48.322;16.204;2023-03-05T01:41:09;2.90;99.90
25640;DHT22;13497;48.322;16.204;2023-03-05T01:43:35;3.00;99.90
25640;DHT22;13497;48.322;16.204;2023-03-05T01:46:23;3.00;99.90
25640;DHT22;13497;48.322;16.204;2023-03-05T01:51:19;3.00;99.90
25640;DHT22;13497;48.322;16.204;2023-03-05T01:53:47;2.90;99.90
25640;DHT22;13497;48.322;16.204;2023-03-05T01:56:14;3.00;99.90
25640;DHT22;13497;48.322;16.204;2023-03-05T01:58:40;3.00;99.90
25640;DHT22;13497;48.322;16.204;2023-03-05T02:01:06;2.90;99.90
25640;DHT22;13497;48.322;16.204;2023-03-05T02:03:32;3.00;99.90
25640;DHT22;13497;48.322;16.204;2023-03-05T02:05:58;3.00;99.90
25640;DHT22;13497;48.322;16.204;2023-03-05T02:08:24;3.00;99.90
25640;DHT22;13497;48.322;16.204;2023-03-05T02:10:53;2.90;99.90
25640;DHT22;13497;48.322;16.204;2023-03-05T02:13:25;2.90;99.90
25640;DHT22;13497;48.322;16.204;2023-03-05T02:15:53;2.90;99.90
25640;DHT22;13497;48.322;16.204;2023-03-05T02:18:21;2.90;99.90
25640;DHT22;13497;48.322;16.204;2023-03-05T02:20:50;2.90;99.90
25640;DHT22;13497;48.322;16.204;2023-03-05T02:23:18;2.90;99.90
25640;DHT22;13497;48.322;16.204;2023-03-05T02:25:44;2.90;99.90
25640;DHT22;13497;48.322;16.204;2023-03-05T02:30:44;2.90;99.90
25640;DHT22;13497;48.322;16.204;2023-03-05T02:33:13;2.90;99.90
25640;DHT22;13497;48.322;16.204;2023-03-05T02:35:39;2.90;99.90
25640;DHT22;13497;48.322;16.204;2023-03-05T02:38:04;2.90;99.90
25640;DHT22;13497;48.322;16.204;2023-03-05T02:40:30;2.90;99.90
25640;DHT22;13497;48.322;16.204;2023-03-05T02:42:56;2.90;99.90
25640;DHT22;13497;48.322;16.204;2023-03-05T02:45:22;2.90;99.90
25640;DHT22;13497;48.322;16.204;2023-03-05T02:47:48;2.90;99.90
25640;DHT22;13497;48.322;16.204;2023-03-05T02:50:14;2.90;99.90
25640;DHT22;13497;48.322;16.204;2023-03-05T02:52:40;3.00;99.90
25640;DHT22;13497;48.322;16.204;2023-03-05T02:55:06;2.90;99.90
25640;DHT22;13497;48.322;16.204;2023-03-05T02:57:32;2.90;99.90
25640;DHT22;13497;48.322;16.204;2023-03-05T02:59:59;3.00;99.90
25640;DHT22;13497;48.322;16.204;2023-03-05T03:02:24;3.00;99.90
25640;DHT22;13497;48.322;16.204;2023-03-05T03:04:50;3.00;99.90
25640;DHT22;13497;48.322;16.204;2023-03-05T03:07:16;3.00;99.90
25640;DHT22;13497;48.322;16.204;2023-03-05T03:09:41;3.00;99.90
25640;DHT22;13497;48.322;16.204;2023-03-05T03:12:08;3.00;99.90
25640;DHT22;13497;48.322;16.204;2023-03-05T03:14:35;3.00;99.90
25640;DHT22;13497;48.322;16.204;2023-03-05T03:17:05;3.00;99.90
25640;DHT22;13497;48.322;16.204;2023-03-05T03:19:30;3.00;99.90
25640;DHT22;13497;48.322;16.204;2023-03-05T03:21:58;3.00;99.90
25640;DHT22;13497;48.322;16.204;2023-03-05T03:24:23;3.00;99.90
25640;DHT22;13497;48.322;16.204;2023-03-05T03:26:49;3.00;99.90
25640;DHT22;13497;48.322;16.204;2023-03-05T03:29:15;3.00;99.90
25640;DHT22;13497;48.322;16.204;2023-03-05T03:31:42;3.00;99.90
25640;DHT22;13497;48.322;16.204;2023-03-05T03:34:11;3.00;99.90
25640;DHT22;13497;48.322;16.204;2023-03-05T03:36:36;3.00;99.90
25640;DHT22;13497;48.322;16.204;2023-03-05T03:39:02;3.00;99.90
25640;DHT22;13497;48.322;16.204;2023-03-05T03:41:30;3.00;99.90
25640;DHT22;13497;48.322;16.204;2023-03-05T03:43:56;2.90;99.90
25640;DHT22;13497;48.322;16.204;2023-03-05T03:46:22;2.90;99.90
25640;DHT22;13497;48.322;16.204;2023-03-05T03:48:51;3.00;99.90
25640;DHT22;13497;48.322;16.204;2023-03-05T03:51:16;3.00;99.90
25640;DHT22;13497;48.322;16.204;2023-03-05T03:53:42;2.90;99.90
25640;DHT22;13497;48.322;16.204;2023-03-05T03:56:07;2.90;99.90
25640;DHT22;13497;48.322;16.204;2023-03-05T03:58:33;3.00;99.90
25640;DHT22;13497;48.322;16.204;2023-03-05T04:01:00;3.00;99.90
25640;DHT22;13497;48.322;16.204;2023-03-05T04:03:26;3.00;99.90
25640;DHT22;13497;48.322;16.204;2023-03-05T04:05:52;3.00;99.90
25640;DHT22;13497;48.322;16.204;2023-03-05T04:08:17;2.90;99.90
25640;DHT22;13497;48.322;16.204;2023-03-05T04:10:43;2.90;99.90
25640;DHT22;13497;48.322;16.204;2023-03-05T04:13:09;2.90;99.90
25640;DHT22;13497;48.322;16.204;2023-03-05T04:15:35;2.90;99.90
25640;DHT22;13497;48.322;16.204;2023-03-05T04:18:01;2.90;99.90
25640;DHT22;13497;48.322;16.204;2023-03-05T04:20:26;2.90;99.90
25640;DHT22;13497;48.322;16.204;2023-03-05T04:22:52;2.90;99.90
25640;DHT22;13497;48.322;16.204;2023-03-05T04:25:17;2.90;99.90
25640;DHT22;13497;48.322;16.204;2023-03-05T04:27:43;2.90;99.90
25640;DHT22;13497;48.322;16.204;2023-03-05T04:30:12;2.90;99.90
25640;DHT22;13497;48.322;16.204;2023-03-05T04:32:39;2.90;99.90
25640;DHT22;13497;48.322;16.204;2023-03-05T04:35:05;2.90;99.90
25640;DHT22;13497;48.322;16.204;2023-03-05T04:37:31;2.90;99.90
25640;DHT22;13497;48.322;16.204;2023-03-05T04:39:57;2.80;99.90
25640;DHT22;13497;48.322;16.204;2023-03-05T04:42:22;2.80;99.90
25640;DHT22;13497;48.322;16.204;2023-03-05T04:44:48;2.80;99.90
25640;DHT22;13497;48.322;16.204;2023-03-05T04:47:15;2.90;99.90
25640;DHT22;13497;48.322;16.204;2023-03-05T04:49:41;2.80;99.90
25640;DHT22;13497;48.322;16.204;2023-03-05T04:52:07;2.90;99.90
25640;DHT22;13497;48.322;16.204;2023-03-05T04:54:35;2.80;99.90
25640;DHT22;13497;48.322;16.204;2023-03-05T04:57:00;2.90;99.90
25640;DHT22;13497;48.322;16.204;2023-03-05T04:59:26;2.90;99.90
25640;DHT22;13497;48.322;16.204;2023-03-05T05:01:51;2.90;99.90
25640;DHT22;13497;48.322;16.204;2023-03-05T05:04:17;2.80;99.90
25640;DHT22;13497;48.322;16.204;2023-03-05T05:06:43;2.80;99.90
25640;DHT22;13497;48.322;16.204;2023-03-05T05:09:08;2.80;99.90
25640;DHT22;13497;48.322;16.204;2023-03-05T05:11:34;2.80;99.90
25640;DHT22;13497;48.322;16.204;2023-03-05T05:13:59;2.80;99.90
25640;DHT22;13497;48.322;16.204;2023-03-05T05:16:25;2.90;99.90
25640;DHT22;13497;48.322;16.204;2023-03-05T05:18:51;2.90;99.90
25640;DHT22;13497;48.322;16.204;2023-03-05T05:21:16;2.90;99.90
25640;DHT22;13497;48.322;16.204;2023-03-05T05:23:43;2.90;99.90
25640;DHT22;13497;48.322;16.204;2023-03-05T05:26:09;2.90;99.90
25640;DHT22;13497;48.322;16.204;2023-03-05T05:28:39;2.80;99.90
25640;DHT22;13497;48.322;16.204;2023-03-05T05:31:08;2.90;99.90
25640;DHT22;13497;48.322;16.204;2023-03-05T05:33:34;2.90;99.90
25640;DHT22;13497;48.322;16.204;2023-03-05T05:36:08;2.90;99.90
25640;DHT22;13497;48.322;16.204;2023-03-05T05:38:34;2.90;99.90
25640;DHT22;13497;48.322;16.204;2023-03-05T05:41:08;2.90;99.90
25640;DHT22;13497;48.322;16.204;2023-03-05T05:43:37;2.90;99.90
25640;DHT22;13497;48.322;16.204;2023-03-05T05:46:05;2.90;99.90
25640;DHT22;13497;48.322;16.204;2023-03-05T05:48:33;2.90;99.90
25640;DHT22;13497;48.322;16.204;2023-03-05T05:51:03;3.00;99.90
25640;DHT22;13497;48.322;16.204;2023-03-05T05:53:29;3.00;99.90
25640;DHT22;13497;48.322;16.204;2023-03-05T05:55:54;2.90;99.90
25640;DHT22;13497;48.322;16.204;2023-03-05T05:58:20;3.00;99.90
25640;DHT22;13497;48.322;16.204;2023-03-05T06:00:46;3.00;99.90
25640;DHT22;13497;48.322;16.204;2023-03-05T06:03:12;3.00;99.90
25640;DHT22;13497;48.322;16.204;2023-03-05T06:05:40;3.00;99.90
25640;DHT22;13497;48.322;16.204;2023-03-05T06:08:06;3.00;99.90
25640;DHT22;13497;48.322;16.204;2023-03-05T06:10:32;3.00;99.90
25640;DHT22;13497;48.322;16.204;2023-03-05T06:12:58;3.00;99.90
25640;DHT22;13497;48.322;16.204;2023-03-05T06:15:23;3.00;99.90
25640;DHT22;13497;48.322;16.204;2023-03-05T06:17:49;3.00;99.90
25640;DHT22;13497;48.322;16.204;2023-03-05T06:20:15;3.00;99.90
25640;DHT22;13497;48.322;16.204;2023-03-05T06:22:40;3.00;99.90
25640;DHT22;13497;48.322;16.204;2023-03-05T06:25:07;3.00;99.90
25640;DHT22;13497;48.322;16.204;2023-03-05T06:27:34;3.00;99.90
25640;DHT22;13497;48.322;16.204;2023-03-05T06:30:00;3.00;99.90
25640;DHT22;13497;48.322;16.204;2023-03-05T06:32:26;3.00;99.90
25640;DHT22;13497;48.322;16.204;2023-03-05T06:34:52;3.00;99.90
25640;DHT22;13497;48.322;16.204;2023-03-05T06:37:17;3.00;99.90
25640;DHT22;13497;48.322;16.204;2023-03-05T06:39:43;3.10;99.90
25640;DHT22;13497;48.322;16.204;2023-03-05T06:42:09;3.10;99.90
25640;DHT22;13497;48.322;16.204;2023-03-05T06:44:40;3.10;99.90
25640;DHT22;13497;48.322;16.204;2023-03-05T06:47:06;3.10;99.90
25640;DHT22;13497;48.322;16.204;2023-03-05T06:49:35;3.10;99.90
25640;DHT22;13497;48.322;16.204;2023-03-05T06:52:01;3.10;99.90
25640;DHT22;13497;48.322;16.204;2023-03-05T06:54:26;3.10;99.90
25640;DHT22;13497;48.322;16.204;2023-03-05T06:56:52;3.10;99.90
25640;DHT22;13497;48.322;16.204;2023-03-05T06:59:18;3.10;99.90
25640;DHT22;13497;48.322;16.204;2023-03-05T07:01:44;3.10;99.90
25640;DHT22;13497;48.322;16.204;2023-03-05T07:04:11;3.10;99.90
25640;DHT22;13497;48.322;16.204;2023-03-05T07:06:38;3.10;99.90
25640;DHT22;13497;48.322;16.204;2023-03-05T07:09:07;3.10;99.90
25640;DHT22;13497;48.322;16.204;2023-03-05T07:11:33;3.20;99.90
25640;DHT22;13497;48.322;16.204;2023-03-05T07:13:59;3.20;99.90
25640;DHT22;13497;48.322;16.204;2023-03-05T07:16:27;3.30;99.90
25640;DHT22;13497;48.322;16.204;2023-03-05T07:18:55;3.20;99.90
25640;DHT22;13497;48.322;16.204;2023-03-05T07:21:23;3.20;99.90
25640;DHT22;13497;48.322;16.204;2023-03-05T07:23:52;3.20;99.90
25640;DHT22;13497;48.322;16.204;2023-03-05T07:26:21;3.30;99.90
25640;DHT22;13497;48.322;16.204;2023-03-05T07:28:47;3.30;99.90
25640;DHT22;13497;48.322;16.204;2023-03-05T07:31:17;3.30;99.90
25640;DHT22;13497;48.322;16.204;2023-03-05T07:33:44;3.30;99.90
25640;DHT22;13497;48.322;16.204;2023-03-05T07:36:11;3.40;99.90
25640;DHT22;13497;48.322;16.204;2023-03-05T07:38:36;3.30;99.90
25640;DHT22;13497;48.322;16.204;2023-03-05T07:41:07;3.30;99.90
25640;DHT22;13497;48.322;16.204;2023-03-05T07:43:33;3.30;99.90
25640;DHT22;13497;48.322;16.204;2023-03-05T07:45:59;3.30;99.90
25640;DHT22;13497;48.322;16.204;2023-03-05T07:48:27;3.40;99.90
25640;DHT22;13497;48.322;16.204;2023-03-05T07:51:01;3.40;99.90
25640;DHT22;13497;48.322;16.204;2023-03-05T07:53:27;3.50;99.90
25640;DHT22;13497;48.322;16.204;2023-03-05T07:55:53;3.50;99.90
25640;DHT22;13497;48.322;16.204;2023-03-05T07:58:18;3.60;99.90
25640;DHT22;13497;48.322;16.204;2023-03-05T08:00:44;3.70;99.90
25640;DHT22;13497;48.322;16.204;2023-03-05T08:03:10;3.70;99.90
25640;DHT22;13497;48.322;16.204;2023-03-05T08:05:38;3.70;99.90
25640;DHT22;13497;48.322;16.204;2023-03-05T08:08:04;3.80;99.90
25640;DHT22;13497;48.322;16.204;2023-03-05T08:10:30;3.80;99.90
25640;DHT22;13497;48.322;16.204;2023-03-05T08:12:56;3.80;99.90
25640;DHT22;13497;48.322;16.204;2023-03-05T08:15:22;3.80;99.90
25640;DHT22;13497;48.322;16.204;2023-03-05T08:17:47;3.80;99.90
25640;DHT22;13497;48.322;16.204;2023-03-05T08:20:13;3.80;99.90
25640;DHT22;13497;48.322;16.204;2023-03-05T08:22:39;3.90;99.90
25640;DHT22;13497;48.322;16.204;2023-03-05T08:25:05;3.90;99.90
25640;DHT22;13497;48.322;16.204;2023-03-05T08:27:31;4.00;99.90
25640;DHT22;13497;48.322;16.204;2023-03-05T08:29:59;4.00;99.90
25640;DHT22;13497;48.322;16.204;2023-03-05T08:32:25;4.10;99.90
25640;DHT22;13497;48.322;16.204;2023-03-05T08:34:55;4.20;99.90
25640;DHT22;13497;48.322;16.204;2023-03-05T08:37:24;4.30;99.90
25640;DHT22;13497;48.322;16.204;2023-03-05T08:39:51;4.30;99.90
25640;DHT22;13497;48.322;16.204;2023-03-05T08:42:16;4.40;99.90
25640;DHT22;13497;48.322;16.204;2023-03-05T08:44:42;4.50;99.90
25640;DHT22;13497;48.322;16.204;2023-03-05T08:47:08;4.50;99.90
25640;DHT22;13497;48.322;16.204;2023-03-05T08:49:33;4.40;99.90
25640;DHT22;13497;48.322;16.204;2023-03-05T08:51:59;4.60;99.90
25640;DHT22;13497;48.322;16.204;2023-03-05T08:54:24;4.70;99.90
25640;DHT22;13497;48.322;16.204;2023-03-05T08:56:50;4.60;99.90
25640;DHT22;13497;48.322;16.204;2023-03-05T08:59:16;4.80;99.90
25640;DHT22;13497;48.322;16.204;2023-03-05T09:01:43;4.90;99.90
25640;DHT22;13497;48.322;16.204;2023-03-05T09:04:08;5.00;99.90
25640;DHT22;13497;48.322;16.204;2023-03-05T09:06:34;5.00;99.90
25640;DHT22;13497;48.322;16.204;2023-03-05T09:09:03;4.90;99.90
25640;DHT22;13497;48.322;16.204;2023-03-05T09:11:29;5.00;99.90
25640;DHT22;13497;48.322;16.204;2023-03-05T09:13:55;5.10;99.90
25640;DHT22;13497;48.322;16.204;2023-03-05T09:16:20;5.30;99.90
25640;DHT22;13497;48.322;16.204;2023-03-05T09:18:47;5.50;99.90
25640;DHT22;13497;48.322;16.204;2023-03-05T09:21:15;5.50;99.90
25640;DHT22;13497;48.322;16.204;2023-03-05T09:23:42;5.50;99.90
25640;DHT22;13497;48.322;16.204;2023-03-05T09:26:09;5.60;99.90
25640;DHT22;13497;48.322;16.204;2023-03-05T09:28:36;5.60;99.90
25640;DHT22;13497;48.322;16.204;2023-03-05T09:31:03;5.60;99.90
25640;DHT22;13497;48.322;16.204;2023-03-05T09:33:33;5.50;99.90
25640;DHT22;13497;48.322;16.204;2023-03-05T09:36:00;5.60;99.90
25640;DHT22;13497;48.322;16.204;2023-03-05T09:38:26;5.70;99.90
25640;DHT22;13497;48.322;16.204;2023-03-05T09:41:02;5.60;99.90
25640;DHT22;13497;48.322;16.204;2023-03-05T09:46:35;5.80;99.90
25640;DHT22;13497;48.322;16.204;2023-03-05T09:51:49;5.80;99.90
25640;DHT22;13497;48.322;16.204;2023-03-05T09:54:23;5.90;99.90
25640;DHT22;13497;48.322;16.204;2023-03-05T09:56:58;6.00;99.90
25640;DHT22;13497;48.322;16.204;2023-03-05T09:59:33;6.10;99.90
25640;DHT22;13497;48.322;16.204;2023-03-05T10:02:12;6.00;99.90
25640;DHT22;13497;48.322;16.204;2023-03-05T10:05:39;6.00;99.90
25640;DHT22;13497;48.322;16.204;2023-03-05T10:07:40;5.90;99.90
25640;DHT22;13497;48.322;16.204;2023-03-05T10:10:13;6.00;99.90
25640;DHT22;13497;48.322;16.204;2023-03-05T10:12:52;5.80;99.90
25640;DHT22;13497;48.322;16.204;2023-03-05T10:20:40;6.30;99.90
25640;DHT22;13497;48.322;16.204;2023-03-05T10:25:57;6.60;99.90
25640;DHT22;13497;48.322;16.204;2023-03-05T10:28:45;6.80;99.90
25640;DHT22;13497;48.322;16.204;2023-03-05T10:33:42;6.60;99.90
25640;DHT22;13497;48.322;16.204;2023-03-05T10:49:55;6.90;99.90
25640;DHT22;13497;48.322;16.204;2023-03-05T10:52:38;6.90;99.90
25640;DHT22;13497;48.322;16.204;2023-03-05T10:55:17;6.60;99.90
25640;DHT22;13497;48.322;16.204;2023-03-05T10:57:44;6.40;99.90
25640;DHT22;13497;48.322;16.204;2023-03-05T11:00:24;6.40;99.90
25640;DHT22;13497;48.322;16.204;2023-03-05T11:03:05;6.30;99.90
25640;DHT22;13497;48.322;16.204;2023-03-05T11:13:37;5.90;99.90
25640;DHT22;13497;48.322;16.204;2023-03-05T11:16:15;6.00;99.90
25640;DHT22;13497;48.322;16.204;2023-03-05T11:18:41;6.00;99.90
25640;DHT22;13497;48.322;16.204;2023-03-05T11:23:42;6.00;99.90
25640;DHT22;13497;48.322;16.204;2023-03-05T11:36:32;5.70;99.90
25640;DHT22;13497;48.322;16.204;2023-03-05T11:39:10;5.70;99.90
25640;DHT22;13497;48.322;16.204;2023-03-05T11:44:14;5.60;99.90
25640;DHT22;13497;48.322;16.204;2023-03-05T11:49:48;5.60;99.90
25640;DHT22;13497;48.322;16.204;2023-03-05T11:52:29;5.70;99.90
25640;DHT22;13497;48.322;16.204;2023-03-05T11:55:13;5.70;99.90
25640;DHT22;13497;48.322;16.204;2023-03-05T11:57:54;5.70;99.90
25640;DHT22;13497;48.322;16.204;2023-03-05T12:00:29;5.70;99.90
25640;DHT22;13497;48.322;16.204;2023-03-05T12:02:57;5.80;99.90
25640;DHT22;13497;48.322;16.204;2023-03-05T12:05:24;5.80;99.90
25640;DHT22;13497;48.322;16.204;2023-03-05T12:07:54;5.90;99.90
25640;DHT22;13497;48.322;16.204;2023-03-05T12:10:23;5.90;99.90
25640;DHT22;13497;48.322;16.204;2023-03-05T12:12:56;5.80;99.90
25640;DHT22;13497;48.322;16.204;2023-03-05T12:23:45;5.60;99.80
25640;DHT22;13497;48.322;16.204;2023-03-05T12:26:10;5.60;99.40
25640;DHT22;13497;48.322;16.204;2023-03-05T12:31:38;5.60;99.30
25640;DHT22;13497;48.322;16.204;2023-03-05T12:40:00;5.80;98.20
25640;DHT22;13497;48.322;16.204;2023-03-05T12:47:42;6.00;97.80
25640;DHT22;13497;48.322;16.204;2023-03-05T12:53:14;5.90;97.60
25640;DHT22;13497;48.322;16.204;2023-03-05T12:58:51;6.00;97.40
25640;DHT22;13497;48.322;16.204;2023-03-05T13:01:51;6.00;97.10
25640;DHT22;13497;48.322;16.204;2023-03-05T13:04:31;6.10;97.10
25640;DHT22;13497;48.322;16.204;2023-03-05T13:07:03;6.20;96.70
25640;DHT22;13497;48.322;16.204;2023-03-05T13:09:31;6.20;96.60
25640;DHT22;13497;48.322;16.204;2023-03-05T13:11:59;6.20;96.30
25640;DHT22;13497;48.322;16.204;2023-03-05T13:14:45;6.20;96.30
25640;DHT22;13497;48.322;16.204;2023-03-05T13:19:54;6.20;96.10
25640;DHT22;13497;48.322;16.204;2023-03-05T13:22:20;6.00;95.90
25640;DHT22;13497;48.322;16.204;2023-03-05T13:25:02;5.90;96.20
25640;DHT22;13497;48.322;16.204;2023-03-05T13:27:30;5.90;96.10
25640;DHT22;13497;48.322;16.204;2023-03-05T13:29:56;6.00;96.60
25640;DHT22;13497;48.322;16.204;2023-03-05T13:32:30;5.90;96.20
25640;DHT22;13497;48.322;16.204;2023-03-05T13:34:58;6.00;95.90
25640;DHT22;13497;48.322;16.204;2023-03-05T13:37:26;6.00;95.80
25640;DHT22;13497;48.322;16.204;2023-03-05T13:39:59;6.00;95.90
25640;DHT22;13497;48.322;16.204;2023-03-05T13:42:29;6.00;96.10
25640;DHT22;13497;48.322;16.204;2023-03-05T13:45:06;6.10;96.10
25640;DHT22;13497;48.322;16.204;2023-03-05T13:47:34;6.20;95.80
25640;DHT22;13497;48.322;16.204;2023-03-05T13:50:03;6.10;95.60
25640;DHT22;13497;48.322;16.204;2023-03-05T13:52:35;6.10;95.60
25640;DHT22;13497;48.322;16.204;2023-03-05T13:55:04;6.10;95.60
25640;DHT22;13497;48.322;16.204;2023-03-05T14:00:36;6.00;95.90
25640;DHT22;13497;48.322;16.204;2023-03-05T14:03:25;6.10;95.60
25640;DHT22;13497;48.322;16.204;2023-03-05T14:05:52;6.10;95.80
25640;DHT22;13497;48.322;16.204;2023-03-05T14:08:21;6.10;95.60
25640;DHT22;13497;48.322;16.204;2023-03-05T14:10:48;6.00;95.40
25640;DHT22;13497;48.322;16.204;2023-03-05T14:13:20;6.00;95.40
25640;DHT22;13497;48.322;16.204;2023-03-05T14:18:33;6.00;95.70
25640;DHT22;13497;48.322;16.204;2023-03-05T14:21:04;6.10;95.70
25640;DHT22;13497;48.322;16.204;2023-03-05T14:23:35;6.00;95.40
25640;DHT22;13497;48.322;16.204;2023-03-05T14:26:36;6.00;95.80
25640;DHT22;13497;48.322;16.204;2023-03-05T14:31:48;6.00;95.70
25640;DHT22;13497;48.322;16.204;2023-03-05T14:36:53;6.00;95.70
25640;DHT22;13497;48.322;16.204;2023-03-05T14:42:36;6.00;96.00
25640;DHT22;13497;48.322;16.204;2023-03-05T14:45:15;6.10;95.70
25640;DHT22;13497;48.322;16.204;2023-03-05T14:47:41;6.00;95.90
25640;DHT22;13497;48.322;16.204;2023-03-05T14:50:10;6.10;95.90
25640;DHT22;13497;48.322;16.204;2023-03-05T14:52:39;6.10;95.90
25640;DHT22;13497;48.322;16.204;2023-03-05T14:55:05;6.10;95.60
25640;DHT22;13497;48.322;16.204;2023-03-05T14:57:31;6.20;95.50
25640;DHT22;13497;48.322;16.204;2023-03-05T14:59:57;6.20;95.40
25640;DHT22;13497;48.322;16.204;2023-03-05T15:02:25;6.20;95.60
25640;DHT22;13497;48.322;16.204;2023-03-05T15:04:51;6.10;95.70
25640;DHT22;13497;48.322;16.204;2023-03-05T15:07:29;6.10;95.70
25640;DHT22;13497;48.322;16.204;2023-03-05T15:09:55;6.20;95.60
25640;DHT22;13497;48.322;16.204;2023-03-05T15:12:22;6.20;95.50
25640;DHT22;13497;48.322;16.204;2023-03-05T15:14:50;6.10;95.70
25640;DHT22;13497;48.322;16.204;2023-03-05T15:17:23;6.10;95.40
25640;DHT22;13497;48.322;16.204;2023-03-05T15:19:50;6.10;96.00
25640;DHT22;13497;48.322;16.204;2023-03-05T15:22:16;6.10;95.80
25640;DHT22;13497;48.322;16.204;2023-03-05T15:24:43;6.20;95.80
25640;DHT22;13497;48.322;16.204;2023-03-05T15:27:09;6.20;95.90
25640;DHT22;13497;48.322;16.204;2023-03-05T15:29:34;6.20;95.70
25640;DHT22;13497;48.322;16.204;2023-03-05T15:32:00;6.20;95.70
25640;DHT22;13497;48.322;16.204;2023-03-05T15:34:27;6.20;95.80
25640;DHT22;13497;48.322;16.204;2023-03-05T15:36:53;6.20;95.80
25640;DHT22;13497;48.322;16.204;2023-03-05T15:39:22;6.10;95.40
25640;DHT22;13497;48.322;16.204;2023-03-05T15:41:51;6.00;95.30
25640;DHT22;13497;48.322;16.204;2023-03-05T15:44:18;5.90;95.60
25640;DHT22;13497;48.322;16.204;2023-03-05T15:46:43;6.00;95.40
25640;DHT22;13497;48.322;16.204;2023-03-05T15:49:09;6.00;95.70
25640;DHT22;13497;48.322;16.204;2023-03-05T15:51:35;6.00;96.10
25640;DHT22;13497;48.322;16.204;2023-03-05T15:54:01;6.00;95.50
25640;DHT22;13497;48.322;16.204;2023-03-05T15:56:26;6.00;95.50
25640;DHT22;13497;48.322;16.204;2023-03-05T15:58:52;6.00;95.60
25640;DHT22;13497;48.322;16.204;2023-03-05T16:01:18;6.00;95.60
25640;DHT22;13497;48.322;16.204;2023-03-05T16:03:45;6.00;95.60
25640;DHT22;13497;48.322;16.204;2023-03-05T16:06:12;5.90;95.70
25640;DHT22;13497;48.322;16.204;2023-03-05T16:08:39;5.90;95.70
25640;DHT22;13497;48.322;16.204;2023-03-05T16:11:07;5.80;95.80
25640;DHT22;13497;48.322;16.204;2023-03-05T16:13:33;5.90;95.90
25640;DHT22;13497;48.322;16.204;2023-03-05T16:16:00;5.80;95.80
25640;DHT22;13497;48.322;16.204;2023-03-05T16:18:28;5.80;95.80
25640;DHT22;13497;48.322;16.204;2023-03-05T16:20:54;5.80;95.90
25640;DHT22;13497;48.322;16.204;2023-03-05T16:23:20;5.80;96.10
25640;DHT22;13497;48.322;16.204;2023-03-05T16:25:46;5.80;96.10
25640;DHT22;13497;48.322;16.204;2023-03-05T16:28:12;5.80;96.10
25640;DHT22;13497;48.322;16.204;2023-03-05T16:30:38;5.70;96.00
25640;DHT22;13497;48.322;16.204;2023-03-05T16:33:04;5.80;96.20
25640;DHT22;13497;48.322;16.204;2023-03-05T16:35:30;5.80;96.30
25640;DHT22;13497;48.322;16.204;2023-03-05T16:37:57;5.70;96.30
25640;DHT22;13497;48.322;16.204;2023-03-05T16:40:23;5.70;96.40
25640;DHT22;13497;48.322;16.204;2023-03-05T16:42:48;5.60;96.80
25640;DHT22;13497;48.322;16.204;2023-03-05T16:45:14;5.60;96.70
25640;DHT22;13497;48.322;16.204;2023-03-05T16:47:40;5.60;96.90
25640;DHT22;13497;48.322;16.204;2023-03-05T16:50:06;5.50;96.80
25640;DHT22;13497;48.322;16.204;2023-03-05T16:52:34;5.40;96.90
25640;DHT22;13497;48.322;16.204;2023-03-05T16:55:00;5.40;96.60
25640;DHT22;13497;48.322;16.204;2023-03-05T16:57:26;5.50;96.60
25640;DHT22;13497;48.322;16.204;2023-03-05T16:59:54;5.50;96.60
25640;DHT22;13497;48.322;16.204;2023-03-05T17:02:20;5.40;96.70
25640;DHT22;13497;48.322;16.204;2023-03-05T17:04:45;5.40;96.70
25640;DHT22;13497;48.322;16.204;2023-03-05T17:07:11;5.50;96.80
25640;DHT22;13497;48.322;16.204;2023-03-05T17:09:37;5.50;96.80
25640;DHT22;13497;48.322;16.204;2023-03-05T17:12:03;5.40;97.00
25640;DHT22;13497;48.322;16.204;2023-03-05T17:14:29;5.50;97.00
25640;DHT22;13497;48.322;16.204;2023-03-05T17:16:55;5.50;96.80
25640;DHT22;13497;48.322;16.204;2023-03-05T17:19:21;5.50;96.80
25640;DHT22;13497;48.322;16.204;2023-03-05T17:21:47;5.40;96.70